sensor_id;sensor_type;location;lat;lon;timestamp;pressure;altitude;pressure_sealevel;temperature;humidity
8641;BME280;4358;42.100;25.222;2023-06-22T00:00:49;100243.88;;;24.41;100.00
8641;BME280;4358;42.100;25.222;2023-06-22T00:03:17;100246.44;;;24.42;100.00
8641;BME280;4358;42.100;25.222;2023-06-22T00:05:44;100245.03;;;24.46;100.00
8641;BME280;4358;42.100;25.222;2023-06-22T00:08:11;100251.41;;;24.54;100.00
8641;BME280;4358;42.100;25.222;2023-06-22T00:10:40;100243.19;;;24.62;100.00
8641;BME280;4358;42.100;25.222;2023-06-22T00:13:07;100246.69;;;24.70;100.00
8641;BME280;4358;42.100;25.222;2023-06-22T00:15:34;100250.69;;;24.74;100.00
8641;BME280;4358;42.100;25.222;2023-06-22T00:18:01;100250.88;;;24.73;100.00
8641;BME280;4358;42.100;25.222;2023-06-22T00:20:29;100249.28;;;24.64;100.00
8641;BME280;4358;42.100;25.222;2023-06-22T00:22:56;100252.06;;;24.56;100.00
8641;BME280;4358;42.100;25.222;2023-06-22T00:25:23;100266.00;;;24.53;100.00
8641;BME280;4358;42.100;25.222;2023-06-22T00:27:52;100271.78;;;24.49;100.00
8641;BME280;4358;42.100;25.222;2023-06-22T00:30:19;100271.88;;;24.41;100.00
8641;BME280;4358;42.100;25.222;2023-06-22T00:32:46;100270.91;;;24.34;100.00
8641;BME280;4358;42.100;25.222;2023-06-22T00:35:13;100271.94;;;24.33;100.00
8641;BME280;4358;42.100;25.222;2023-06-22T00:37:39;100282.22;;;24.23;100.00
8641;BME280;4358;42.100;25.222;2023-06-22T00:40:08;100278.03;;;24.13;100.00
8641;BME280;4358;42.100;25.222;2023-06-22T00:42:36;100269.69;;;23.91;100.00
8641;BME280;4358;42.100;25.222;2023-06-22T00:45:05;100271.66;;;23.75;100.00
8641;BME280;4358;42.100;25.222;2023-06-22T00:47:34;100258.09;;;23.36;100.00
8641;BME280;4358;42.100;25.222;2023-06-22T00:50:00;100276.00;;;23.06;100.00
8641;BME280;4358;42.100;25.222;2023-06-22T00:52:28;100271.75;;;23.03;100.00
8641;BME280;4358;42.100;25.222;2023-06-22T00:54:59;100279.41;;;22.92;100.00
8641;BME280;4358;42.100;25.222;2023-06-22T00:57:28;100284.16;;;22.65;100.00
8641;BME280;4358;42.100;25.222;2023-06-22T00:59:55;100275.06;;;22.50;100.00
8641;BME280;4358;42.100;25.222;2023-06-22T01:02:23;100281.16;;;22.28;100.00
8641;BME280;4358;42.100;25.222;2023-06-22T01:04:50;100280.81;;;22.23;100.00
8641;BME280;4358;42.100;25.222;2023-06-22T01:07:21;100278.59;;;22.18;100.00
8641;BME280;4358;42.100;25.222;2023-06-22T01:10:03;100287.22;;;22.30;100.00
8641;BME280;4358;42.100;25.222;2023-06-22T01:12:37;100285.88;;;22.34;100.00
8641;BME280;4358;42.100;25.222;2023-06-22T01:15:10;100288.75;;;22.32;100.00
8641;BME280;4358;42.100;25.222;2023-06-22T01:17:40;100277.75;;;22.26;100.00
8641;BME280;4358;42.100;25.222;2023-06-22T01:20:10;100286.03;;;22.24;100.00
8641;BME280;4358;42.100;25.222;2023-06-22T01:22:54;100288.03;;;22.06;100.00
8641;BME280;4358;42.100;25.222;2023-06-22T01:25:31;100281.22;;;21.86;100.00
8641;BME280;4358;42.100;25.222;2023-06-22T01:30:53;100273.84;;;21.46;100.00
8641;BME280;4358;42.100;25.222;2023-06-22T01:33:29;100274.25;;;21.67;100.00
8641;BME280;4358;42.100;25.222;2023-06-22T01:35:58;100269.13;;;21.48;100.00
8641;BME280;4358;42.100;25.222;2023-06-22T01:38:27;100261.66;;;21.34;100.00
8641;BME280;4358;42.100;25.222;2023-06-22T01:40:57;100259.81;;;21.42;100.00
8641;BME280;4358;42.100;25.222;2023-06-22T01:43:25;100267.72;;;21.36;100.00
8641;BME280;4358;42.100;25.222;2023-06-22T01:45:54;100268.44;;;21.46;100.00
8641;BME280;4358;42.100;25.222;2023-06-22T01:48:23;100270.84;;;21.49;100.00
8641;BME280;4358;42.100;25.222;2023-06-22T01:50:51;100254.97;;;21.54;100.00
8641;BME280;4358;42.100;25.222;2023-06-22T01:53:20;100266.81;;;21.61;100.00
8641;BME280;4358;42.100;25.222;2023-06-22T01:55:47;100262.38;;;21.52;100.00
8641;BME280;4358;42.100;25.222;2023-06-22T01:58:14;100261.38;;;21.45;100.00
8641;BME280;4358;42.100;25.222;2023-06-22T02:00:47;100257.63;;;21.38;100.00
8641;BME280;4358;42.100;25.222;2023-06-22T02:03:19;100256.94;;;21.36;100.00
8641;BME280;4358;42.100;25.222;2023-06-22T02:05:50;100260.69;;;21.09;100.00
8641;BME280;4358;42.100;25.222;2023-06-22T02:08:20;100274.00;;;21.10;100.00
8641;BME280;4358;42.100;25.222;2023-06-22T02:10:49;100275.66;;;21.03;100.00
8641;BME280;4358;42.100;25.222;2023-06-22T02:13:17;100277.94;;;20.90;100.00
8641;BME280;4358;42.100;25.222;2023-06-22T02:15:46;100269.75;;;20.74;100.00
8641;BME280;4358;42.100;25.222;2023-06-22T02:18:13;100270.97;;;20.80;100.00
8641;BME280;4358;42.100;25.222;2023-06-22T02:20:42;100286.41;;;20.69;100.00
8641;BME280;4358;42.100;25.222;2023-06-22T02:23:09;100288.00;;;20.80;100.00
8641;BME280;4358;42.100;25.222;2023-06-22T02:25:36;100284.16;;;20.83;100.00
8641;BME280;4358;42.100;25.222;2023-06-22T02:28:03;100298.41;;;20.75;100.00
8641;BME280;4358;42.100;25.222;2023-06-22T02:30:31;100292.00;;;20.50;100.00
8641;BME280;4358;42.100;25.222;2023-06-22T02:32:58;100300.34;;;20.39;100.00
8641;BME280;4358;42.100;25.222;2023-06-22T02:35:26;100292.59;;;20.26;100.00
8641;BME280;4358;42.100;25.222;2023-06-22T02:37:58;100297.69;;;20.47;100.00
8641;BME280;4358;42.100;25.222;2023-06-22T02:40:26;100296.28;;;20.35;100.00
8641;BME280;4358;42.100;25.222;2023-06-22T02:42:53;100309.66;;;20.45;100.00
8641;BME280;4358;42.100;25.222;2023-06-22T02:45:20;100303.19;;;20.38;100.00
8641;BME280;4358;42.100;25.222;2023-06-22T02:47:47;100294.63;;;20.42;100.00
8641;BME280;4358;42.100;25.222;2023-06-22T02:50:14;100296.84;;;20.47;100.00
8641;BME280;4358;42.100;25.222;2023-06-22T02:52:41;100311.66;;;20.43;100.00
8641;BME280;4358;42.100;25.222;2023-06-22T02:55:09;100310.66;;;20.44;100.00
8641;BME280;4358;42.100;25.222;2023-06-22T02:57:36;100311.78;;;20.41;100.00
8641;BME280;4358;42.100;25.222;2023-06-22T03:00:04;100305.16;;;20.53;100.00
8641;BME280;4358;42.100;25.222;2023-06-22T03:02:42;100306.75;;;20.64;100.00
8641;BME280;4358;42.100;25.222;2023-06-22T03:05:09;100307.63;;;20.64;100.00
8641;BME280;4358;42.100;25.222;2023-06-22T03:07:39;100308.97;;;20.68;100.00
8641;BME280;4358;42.100;25.222;2023-06-22T03:10:09;100306.47;;;20.67;100.00
8641;BME280;4358;42.100;25.222;2023-06-22T03:12:36;100311.69;;;20.68;100.00
8641;BME280;4358;42.100;25.222;2023-06-22T03:15:05;100309.03;;;20.51;100.00
8641;BME280;4358;42.100;25.222;2023-06-22T03:17:33;100307.13;;;20.69;100.00
8641;BME280;4358;42.100;25.222;2023-06-22T03:20:00;100311.16;;;20.65;100.00
8641;BME280;4358;42.100;25.222;2023-06-22T03:22:32;100314.19;;;20.44;100.00
8641;BME280;4358;42.100;25.222;2023-06-22T03:24:59;100320.72;;;20.42;100.00
8641;BME280;4358;42.100;25.222;2023-06-22T03:27:27;100316.75;;;20.46;100.00
8641;BME280;4358;42.100;25.222;2023-06-22T03:29:54;100319.16;;;20.57;100.00
8641;BME280;4358;42.100;25.222;2023-06-22T03:32:21;100311.78;;;20.59;100.00
8641;BME280;4358;42.100;25.222;2023-06-22T03:34:47;100318.53;;;20.63;100.00
8641;BME280;4358;42.100;25.222;2023-06-22T03:37:14;100328.59;;;20.53;100.00
8641;BME280;4358;42.100;25.222;2023-06-22T03:39:41;100325.84;;;20.45;100.00
8641;BME280;4358;42.100;25.222;2023-06-22T03:42:08;100319.34;;;20.38;100.00
8641;BME280;4358;42.100;25.222;2023-06-22T03:44:36;100315.16;;;20.25;100.00
8641;BME280;4358;42.100;25.222;2023-06-22T03:47:04;100319.56;;;20.26;100.00
8641;BME280;4358;42.100;25.222;2023-06-22T03:49:32;100311.75;;;20.33;100.00
8641;BME280;4358;42.100;25.222;2023-06-22T03:52:00;100315.13;;;20.35;100.00
8641;BME280;4358;42.100;25.222;2023-06-22T03:54:28;100312.81;;;20.40;100.00
8641;BME280;4358;42.100;25.222;2023-06-22T03:56:55;100316.66;;;20.38;100.00
8641;BME280;4358;42.100;25.222;2023-06-22T03:59:22;100318.78;;;20.52;100.00
8641;BME280;4358;42.100;25.222;2023-06-22T04:01:51;100313.22;;;20.71;100.00
8641;BME280;4358;42.100;25.222;2023-06-22T04:04:17;100310.31;;;20.90;100.00
8641;BME280;4358;42.100;25.222;2023-06-22T04:06:44;100316.78;;;20.97;100.00
8641;BME280;4358;42.100;25.222;2023-06-22T04:09:12;100315.81;;;21.06;100.00
8641;BME280;4358;42.100;25.222;2023-06-22T04:11:39;100309.69;;;21.22;100.00
8641;BME280;4358;42.100;25.222;2023-06-22T04:14:05;100311.13;;;21.42;100.00
8641;BME280;4358;42.100;25.222;2023-06-22T04:16:33;100315.94;;;21.65;100.00
8641;BME280;4358;42.100;25.222;2023-06-22T04:19:01;100325.63;;;21.83;100.00
8641;BME280;4358;42.100;25.222;2023-06-22T04:21:28;100317.78;;;21.98;100.00
8641;BME280;4358;42.100;25.222;2023-06-22T04:23:54;100326.75;;;22.07;100.00
8641;BME280;4358;42.100;25.222;2023-06-22T04:26:21;100323.72;;;22.18;100.00
8641;BME280;4358;42.100;25.222;2023-06-22T04:28:48;100331.16;;;22.32;100.00
8641;BME280;4358;42.100;25.222;2023-06-22T04:31:17;100331.00;;;22.33;100.00
8641;BME280;4358;42.100;25.222;2023-06-22T04:33:45;100330.16;;;22.41;100.00
8641;BME280;4358;42.100;25.222;2023-06-22T04:36:13;100337.59;;;22.55;100.00
8641;BME280;4358;42.100;25.222;2023-06-22T04:38:40;100329.47;;;22.47;100.00
8641;BME280;4358;42.100;25.222;2023-06-22T04:41:07;100332.03;;;22.49;100.00
8641;BME280;4358;42.100;25.222;2023-06-22T04:43:39;100343.69;;;22.49;100.00
8641;BME280;4358;42.100;25.222;2023-06-22T04:46:06;100342.00;;;22.48;100.00
8641;BME280;4358;42.100;25.222;2023-06-22T04:48:33;100333.19;;;22.62;100.00
8641;BME280;4358;42.100;25.222;2023-06-22T04:51:00;100350.59;;;22.68;100.00
8641;BME280;4358;42.100;25.222;2023-06-22T04:53:31;100355.53;;;22.72;100.00
8641;BME280;4358;42.100;25.222;2023-06-22T04:55:58;100352.84;;;22.80;100.00
8641;BME280;4358;42.100;25.222;2023-06-22T04:58:25;100361.28;;;23.02;100.00
8641;BME280;4358;42.100;25.222;2023-06-22T05:00:54;100358.72;;;23.00;100.00
8641;BME280;4358;42.100;25.222;2023-06-22T05:03:24;100356.34;;;23.05;100.00
8641;BME280;4358;42.100;25.222;2023-06-22T05:05:51;100342.66;;;23.07;100.00
8641;BME280;4358;42.100;25.222;2023-06-22T05:08:19;100358.69;;;23.24;100.00
8641;BME280;4358;42.100;25.222;2023-06-22T05:10:47;100350.38;;;23.34;100.00
8641;BME280;4358;42.100;25.222;2023-06-22T05:13:14;100351.72;;;23.46;100.00
8641;BME280;4358;42.100;25.222;2023-06-22T05:15:41;100352.22;;;23.50;100.00
8641;BME280;4358;42.100;25.222;2023-06-22T05:18:07;100356.75;;;23.57;100.00
8641;BME280;4358;42.100;25.222;2023-06-22T05:20:34;100352.19;;;23.58;100.00
8641;BME280;4358;42.100;25.222;2023-06-22T05:23:01;100354.34;;;23.62;100.00
8641;BME280;4358;42.100;25.222;2023-06-22T05:25:28;100353.03;;;23.58;100.00
8641;BME280;4358;42.100;25.222;2023-06-22T05:27:59;100342.81;;;23.69;100.00
8641;BME280;4358;42.100;25.222;2023-06-22T05:30:27;100342.03;;;23.91;100.00
8641;BME280;4358;42.100;25.222;2023-06-22T05:32:53;100344.66;;;24.07;100.00
8641;BME280;4358;42.100;25.222;2023-06-22T05:35:20;100345.94;;;24.19;100.00
8641;BME280;4358;42.100;25.222;2023-06-22T05:37:47;100347.47;;;24.22;100.00
8641;BME280;4358;42.100;25.222;2023-06-22T05:40:14;100339.94;;;24.32;100.00
8641;BME280;4358;42.100;25.222;2023-06-22T05:42:41;100346.81;;;24.42;100.00
8641;BME280;4358;42.100;25.222;2023-06-22T05:45:09;100348.13;;;24.46;100.00
8641;BME280;4358;42.100;25.222;2023-06-22T05:47:36;100343.16;;;24.73;100.00
8641;BME280;4358;42.100;25.222;2023-06-22T05:50:04;100347.47;;;24.90;100.00
8641;BME280;4358;42.100;25.222;2023-06-22T05:52:33;100335.13;;;25.17;100.00
8641;BME280;4358;42.100;25.222;2023-06-22T05:55:02;100339.53;;;25.33;100.00
8641;BME280;4358;42.100;25.222;2023-06-22T05:57:28;100329.22;;;25.43;100.00
8641;BME280;4358;42.100;25.222;2023-06-22T05:59:55;100322.97;;;25.57;100.00
8641;BME280;4358;42.100;25.222;2023-06-22T06:02:24;100326.88;;;25.84;100.00
8641;BME280;4358;42.100;25.222;2023-06-22T06:04:51;100319.91;;;25.96;100.00
8641;BME280;4358;42.100;25.222;2023-06-22T06:07:18;100327.25;;;26.17;100.00
8641;BME280;4358;42.100;25.222;2023-06-22T06:09:45;100335.81;;;26.35;97.96
8641;BME280;4358;42.100;25.222;2023-06-22T06:12:11;100331.28;;;26.42;97.54
8641;BME280;4358;42.100;25.222;2023-06-22T06:14:38;100336.16;;;26.46;97.23
8641;BME280;4358;42.100;25.222;2023-06-22T06:17:05;100336.31;;;26.66;95.88
8641;BME280;4358;42.100;25.222;2023-06-22T06:19:33;100332.16;;;26.70;94.18
8641;BME280;4358;42.100;25.222;2023-06-22T06:22:00;100332.56;;;26.88;93.19
8641;BME280;4358;42.100;25.222;2023-06-22T06:24:27;100328.16;;;26.87;92.36
8641;BME280;4358;42.100;25.222;2023-06-22T06:26:54;100325.97;;;27.04;91.47
8641;BME280;4358;42.100;25.222;2023-06-22T06:29:21;100323.94;;;27.13;90.44
8641;BME280;4358;42.100;25.222;2023-06-22T06:31:49;100327.78;;;27.25;89.18
8641;BME280;4358;42.100;25.222;2023-06-22T06:34:15;100330.75;;;27.30;89.06
8641;BME280;4358;42.100;25.222;2023-06-22T06:36:43;100328.75;;;27.45;88.72
8641;BME280;4358;42.100;25.222;2023-06-22T06:39:10;100328.44;;;27.61;88.67
8641;BME280;4358;42.100;25.222;2023-06-22T06:41:37;100320.94;;;27.76;90.01
8641;BME280;4358;42.100;25.222;2023-06-22T06:44:04;100324.34;;;27.92;89.11
8641;BME280;4358;42.100;25.222;2023-06-22T06:46:31;100335.91;;;27.94;87.00
8641;BME280;4358;42.100;25.222;2023-06-22T06:48:57;100329.59;;;27.87;87.52
8641;BME280;4358;42.100;25.222;2023-06-22T06:51:24;100342.91;;;27.62;87.55
8641;BME280;4358;42.100;25.222;2023-06-22T06:53:52;100343.56;;;27.70;90.01
8641;BME280;4358;42.100;25.222;2023-06-22T06:56:20;100343.19;;;27.73;92.39
8641;BME280;4358;42.100;25.222;2023-06-22T06:58:49;100357.41;;;27.62;91.79
8641;BME280;4358;42.100;25.222;2023-06-22T07:01:33;100342.72;;;27.70;92.71
8641;BME280;4358;42.100;25.222;2023-06-22T07:04:05;100349.94;;;27.84;91.02
8641;BME280;4358;42.100;25.222;2023-06-22T07:06:44;100346.84;;;27.94;90.06
8641;BME280;4358;42.100;25.222;2023-06-22T07:09:12;100347.06;;;27.99;90.78
8641;BME280;4358;42.100;25.222;2023-06-22T07:11:39;100347.13;;;28.12;90.69
8641;BME280;4358;42.100;25.222;2023-06-22T07:14:06;100349.28;;;28.36;87.73
8641;BME280;4358;42.100;25.222;2023-06-22T07:16:32;100342.97;;;28.29;90.06
8641;BME280;4358;42.100;25.222;2023-06-22T07:18:59;100338.38;;;28.36;87.41
8641;BME280;4358;42.100;25.222;2023-06-22T07:21:26;100349.94;;;28.45;87.41
8641;BME280;4358;42.100;25.222;2023-06-22T07:23:53;100352.00;;;28.43;86.82
8641;BME280;4358;42.100;25.222;2023-06-22T07:26:21;100339.44;;;28.42;87.46
8641;BME280;4358;42.100;25.222;2023-06-22T07:28:48;100334.59;;;28.50;89.11
8641;BME280;4358;42.100;25.222;2023-06-22T07:31:16;100346.44;;;28.84;84.28
8641;BME280;4358;42.100;25.222;2023-06-22T07:33:43;100354.59;;;28.97;85.55
8641;BME280;4358;42.100;25.222;2023-06-22T07:36:10;100345.97;;;29.06;84.17
8641;BME280;4358;42.100;25.222;2023-06-22T07:38:36;100341.75;;;29.17;85.27
8641;BME280;4358;42.100;25.222;2023-06-22T07:41:03;100335.44;;;29.36;84.80
8641;BME280;4358;42.100;25.222;2023-06-22T07:43:32;100338.41;;;29.41;84.02
8641;BME280;4358;42.100;25.222;2023-06-22T07:45:59;100330.38;;;29.46;82.81
8641;BME280;4358;42.100;25.222;2023-06-22T07:48:26;100333.75;;;29.42;82.78
8641;BME280;4358;42.100;25.222;2023-06-22T07:50:53;100337.09;;;29.57;84.56
8641;BME280;4358;42.100;25.222;2023-06-22T07:53:20;100344.25;;;29.52;83.73
8641;BME280;4358;42.100;25.222;2023-06-22T07:55:47;100337.47;;;29.61;81.84
8641;BME280;4358;42.100;25.222;2023-06-22T07:58:14;100339.19;;;29.48;80.72
8641;BME280;4358;42.100;25.222;2023-06-22T08:00:45;100344.19;;;29.65;78.45
8641;BME280;4358;42.100;25.222;2023-06-22T08:03:12;100334.44;;;29.82;75.32
8641;BME280;4358;42.100;25.222;2023-06-22T08:05:39;100323.91;;;29.92;70.77
8641;BME280;4358;42.100;25.222;2023-06-22T08:08:06;100330.16;;;29.99;71.82
8641;BME280;4358;42.100;25.222;2023-06-22T08:10:33;100334.34;;;30.08;68.43
8641;BME280;4358;42.100;25.222;2023-06-22T08:13:00;100325.88;;;30.16;74.89
8641;BME280;4358;42.100;25.222;2023-06-22T08:15:26;100327.09;;;30.20;74.80
8641;BME280;4358;42.100;25.222;2023-06-22T08:17:55;100333.38;;;30.27;71.35
8641;BME280;4358;42.100;25.222;2023-06-22T08:20:23;100340.81;;;30.52;68.27
8641;BME280;4358;42.100;25.222;2023-06-22T08:22:50;100331.56;;;30.53;68.13
8641;BME280;4358;42.100;25.222;2023-06-22T08:25:16;100329.78;;;30.65;68.33
8641;BME280;4358;42.100;25.222;2023-06-22T08:27:45;100334.81;;;30.68;68.14
8641;BME280;4358;42.100;25.222;2023-06-22T08:30:12;100327.66;;;30.67;67.65
8641;BME280;4358;42.100;25.222;2023-06-22T08:32:39;100321.22;;;30.80;66.62
8641;BME280;4358;42.100;25.222;2023-06-22T08:35:08;100316.06;;;30.90;66.56
8641;BME280;4358;42.100;25.222;2023-06-22T08:37:35;100328.25;;;30.94;64.09
8641;BME280;4358;42.100;25.222;2023-06-22T08:40:06;100323.13;;;31.04;62.23
8641;BME280;4358;42.100;25.222;2023-06-22T08:42:34;100324.97;;;31.10;58.44
8641;BME280;4358;42.100;25.222;2023-06-22T08:45:01;100320.38;;;31.29;58.06
8641;BME280;4358;42.100;25.222;2023-06-22T08:47:28;100316.59;;;31.66;56.02
8641;BME280;4358;42.100;25.222;2023-06-22T08:49:55;100323.00;;;31.60;54.73
8641;BME280;4358;42.100;25.222;2023-06-22T08:52:23;100320.00;;;31.62;53.98
8641;BME280;4358;42.100;25.222;2023-06-22T08:54:50;100318.53;;;31.77;52.32
8641;BME280;4358;42.100;25.222;2023-06-22T08:57:17;100306.59;;;31.72;53.30
8641;BME280;4358;42.100;25.222;2023-06-22T08:59:44;100304.28;;;31.87;53.33
8641;BME280;4358;42.100;25.222;2023-06-22T09:02:11;100309.28;;;32.08;50.71
8641;BME280;4358;42.100;25.222;2023-06-22T09:04:38;100306.28;;;32.10;50.89
8641;BME280;4358;42.100;25.222;2023-06-22T09:07:05;100304.22;;;32.35;48.34
8641;BME280;4358;42.100;25.222;2023-06-22T09:09:33;100301.66;;;32.63;48.08
8641;BME280;4358;42.100;25.222;2023-06-22T09:12:00;100300.16;;;32.67;48.56
8641;BME280;4358;42.100;25.222;2023-06-22T09:14:27;100295.41;;;32.86;47.84
8641;BME280;4358;42.100;25.222;2023-06-22T09:16:54;100289.63;;;33.11;48.76
8641;BME280;4358;42.100;25.222;2023-06-22T09:19:21;100284.13;;;33.34;48.39
8641;BME280;4358;42.100;25.222;2023-06-22T09:21:48;100289.50;;;33.29;47.93
8641;BME280;4358;42.100;25.222;2023-06-22T09:24:15;100278.03;;;33.44;48.50
8641;BME280;4358;42.100;25.222;2023-06-22T09:26:43;100275.59;;;33.71;47.85
8641;BME280;4358;42.100;25.222;2023-06-22T09:29:10;100277.09;;;34.07;47.56
8641;BME280;4358;42.100;25.222;2023-06-22T09:31:37;100280.28;;;34.43;46.01
8641;BME280;4358;42.100;25.222;2023-06-22T09:34:04;100273.34;;;34.13;46.61
8641;BME280;4358;42.100;25.222;2023-06-22T09:36:31;100265.03;;;34.24;46.40
8641;BME280;4358;42.100;25.222;2023-06-22T09:38:58;100288.63;;;34.32;45.84
8641;BME280;4358;42.100;25.222;2023-06-22T09:41:26;100271.16;;;34.26;47.37
8641;BME280;4358;42.100;25.222;2023-06-22T09:43:54;100275.41;;;34.51;46.54
8641;BME280;4358;42.100;25.222;2023-06-22T09:46:21;100274.41;;;34.57;46.28
8641;BME280;4358;42.100;25.222;2023-06-22T09:48:50;100278.09;;;34.45;45.51
8641;BME280;4358;42.100;25.222;2023-06-22T09:51:17;100267.81;;;34.24;46.56
8641;BME280;4358;42.100;25.222;2023-06-22T09:53:45;100267.91;;;34.46;45.63
8641;BME280;4358;42.100;25.222;2023-06-22T09:56:12;100272.25;;;34.92;44.68
8641;BME280;4358;42.100;25.222;2023-06-22T09:58:42;100273.00;;;35.04;44.06
8641;BME280;4358;42.100;25.222;2023-06-22T10:01:10;100271.63;;;35.23;44.02
8641;BME280;4358;42.100;25.222;2023-06-22T10:03:37;100263.41;;;35.28;44.67
8641;BME280;4358;42.100;25.222;2023-06-22T10:06:04;100266.44;;;35.49;44.01
8641;BME280;4358;42.100;25.222;2023-06-22T10:08:31;100263.09;;;35.47;42.78
8641;BME280;4358;42.100;25.222;2023-06-22T10:10:58;100251.31;;;35.73;43.45
8641;BME280;4358;42.100;25.222;2023-06-22T10:13:25;100264.34;;;35.78;42.51
8641;BME280;4358;42.100;25.222;2023-06-22T10:15:52;100267.72;;;35.63;43.32
8641;BME280;4358;42.100;25.222;2023-06-22T10:18:20;100264.81;;;34.93;44.68
8641;BME280;4358;42.100;25.222;2023-06-22T10:20:48;100259.28;;;34.93;44.55
8641;BME280;4358;42.100;25.222;2023-06-22T10:23:16;100264.41;;;34.84;44.17
8641;BME280;4358;42.100;25.222;2023-06-22T10:25:43;100256.38;;;34.99;43.99
8641;BME280;4358;42.100;25.222;2023-06-22T10:28:10;100257.81;;;35.23;43.31
8641;BME280;4358;42.100;25.222;2023-06-22T10:30:38;100245.84;;;35.35;43.73
8641;BME280;4358;42.100;25.222;2023-06-22T10:33:06;100247.88;;;35.66;42.76
8641;BME280;4358;42.100;25.222;2023-06-22T10:35:35;100253.53;;;35.76;42.72
8641;BME280;4358;42.100;25.222;2023-06-22T10:38:03;100252.19;;;35.57;41.94
8641;BME280;4358;42.100;25.222;2023-06-22T10:40:30;100245.00;;;35.56;42.62
8641;BME280;4358;42.100;25.222;2023-06-22T10:42:57;100243.59;;;35.32;43.13
8641;BME280;4358;42.100;25.222;2023-06-22T10:45:24;100242.44;;;34.89;43.86
8641;BME280;4358;42.100;25.222;2023-06-22T10:47:52;100241.69;;;34.77;43.51
8641;BME280;4358;42.100;25.222;2023-06-22T10:50:19;100240.75;;;34.88;43.51
8641;BME280;4358;42.100;25.222;2023-06-22T10:52:48;100236.53;;;34.80;43.77
8641;BME280;4358;42.100;25.222;2023-06-22T10:55:14;100227.81;;;34.89;43.70
8641;BME280;4358;42.100;25.222;2023-06-22T10:57:41;100233.47;;;34.99;43.07
8641;BME280;4358;42.100;25.222;2023-06-22T11:00:10;100229.13;;;34.86;43.81
8641;BME280;4358;42.100;25.222;2023-06-22T11:02:37;100227.09;;;34.98;44.17
8641;BME280;4358;42.100;25.222;2023-06-22T11:05:05;100222.75;;;35.02;43.59
8641;BME280;4358;42.100;25.222;2023-06-22T11:07:32;100213.44;;;34.86;44.35
8641;BME280;4358;42.100;25.222;2023-06-22T11:10:00;100216.59;;;34.95;44.48
8641;BME280;4358;42.100;25.222;2023-06-22T11:12:27;100220.63;;;34.71;45.37
8641;BME280;4358;42.100;25.222;2023-06-22T11:14:54;100219.56;;;34.38;46.51
8641;BME280;4358;42.100;25.222;2023-06-22T11:17:22;100211.47;;;34.49;46.73
8641;BME280;4358;42.100;25.222;2023-06-22T11:19:50;100215.97;;;34.21;47.64
8641;BME280;4358;42.100;25.222;2023-06-22T11:22:17;100215.00;;;33.99;47.96
8641;BME280;4358;42.100;25.222;2023-06-22T11:24:44;100217.28;;;34.02;48.35
8641;BME280;4358;42.100;25.222;2023-06-22T11:27:12;100214.38;;;33.97;47.87
8641;BME280;4358;42.100;25.222;2023-06-22T11:29:39;100215.59;;;34.01;47.91
8641;BME280;4358;42.100;25.222;2023-06-22T11:32:06;100206.22;;;33.85;48.54
8641;BME280;4358;42.100;25.222;2023-06-22T11:34:33;100217.47;;;33.84;48.66
8641;BME280;4358;42.100;25.222;2023-06-22T11:37:00;100217.78;;;33.59;49.76
8641;BME280;4358;42.100;25.222;2023-06-22T11:39:27;100214.13;;;33.42;50.63
8641;BME280;4358;42.100;25.222;2023-06-22T11:41:54;100222.94;;;33.55;51.15
8641;BME280;4358;42.100;25.222;2023-06-22T11:44:22;100215.47;;;33.68;50.63
8641;BME280;4358;42.100;25.222;2023-06-22T11:46:49;100215.88;;;33.59;51.01
8641;BME280;4358;42.100;25.222;2023-06-22T11:49:16;100214.53;;;33.74;51.39
8641;BME280;4358;42.100;25.222;2023-06-22T11:51:42;100217.31;;;33.90;50.11
8641;BME280;4358;42.100;25.222;2023-06-22T11:54:09;100214.16;;;33.98;50.14
8641;BME280;4358;42.100;25.222;2023-06-22T11:56:36;100216.38;;;34.47;49.11
8641;BME280;4358;42.100;25.222;2023-06-22T11:59:03;100217.97;;;34.76;47.73
8641;BME280;4358;42.100;25.222;2023-06-22T12:01:32;100213.25;;;34.93;48.59
8641;BME280;4358;42.100;25.222;2023-06-22T12:03:59;100202.94;;;35.05;48.18
8641;BME280;4358;42.100;25.222;2023-06-22T12:06:26;100212.81;;;35.01;47.64
8641;BME280;4358;42.100;25.222;2023-06-22T12:08:53;100217.41;;;34.74;49.22
8641;BME280;4358;42.100;25.222;2023-06-22T12:11:20;100212.03;;;34.84;48.77
8641;BME280;4358;42.100;25.222;2023-06-22T12:13:46;100209.28;;;35.22;48.22
8641;BME280;4358;42.100;25.222;2023-06-22T12:16:13;100207.59;;;35.43;47.40
8641;BME280;4358;42.100;25.222;2023-06-22T12:18:41;100183.00;;;35.42;46.38
8641;BME280;4358;42.100;25.222;2023-06-22T12:21:08;100204.91;;;35.75;46.23
8641;BME280;4358;42.100;25.222;2023-06-22T12:23:35;100199.72;;;36.05;44.78
8641;BME280;4358;42.100;25.222;2023-06-22T12:26:02;100196.16;;;36.37;44.92
8641;BME280;4358;42.100;25.222;2023-06-22T12:28:29;100200.19;;;36.61;43.32
8641;BME280;4358;42.100;25.222;2023-06-22T12:30:56;100198.06;;;36.68;42.91
8641;BME280;4358;42.100;25.222;2023-06-22T12:33:22;100192.13;;;37.02;42.50
8641;BME280;4358;42.100;25.222;2023-06-22T12:35:51;100193.06;;;37.12;40.80
8641;BME280;4358;42.100;25.222;2023-06-22T12:38:17;100202.75;;;36.68;40.47
8641;BME280;4358;42.100;25.222;2023-06-22T12:40:44;100194.44;;;36.31;41.02
8641;BME280;4358;42.100;25.222;2023-06-22T12:43:12;100190.28;;;36.33;40.62
8641;BME280;4358;42.100;25.222;2023-06-22T12:45:39;100187.28;;;36.35;41.10
8641;BME280;4358;42.100;25.222;2023-06-22T12:48:06;100185.16;;;36.47;41.19
8641;BME280;4358;42.100;25.222;2023-06-22T12:50:34;100188.53;;;36.59;40.67
8641;BME280;4358;42.100;25.222;2023-06-22T12:53:02;100176.75;;;36.32;41.01
8641;BME280;4358;42.100;25.222;2023-06-22T12:55:30;100188.53;;;36.22;40.42
8641;BME280;4358;42.100;25.222;2023-06-22T12:57:56;100184.47;;;36.30;40.58
8641;BME280;4358;42.100;25.222;2023-06-22T13:00:23;100177.31;;;35.75;40.98